Terminal Aerodrome Forecast
Issued by NWS Tulsa, OK

Home | Current Version | Previous Version | Text Only | Print | Product List | Glossary On
Versions: 1 2 3 4 5 6 7 8 9 10 11 12
442
FTUS44 KTSA 261720
TAFTUL
TAF
KTUL 261720Z 2618/2718 25010KT P6SM SCT035
     FM262000 32010KT P6SM BKN040
     FM270100 VRB04KT P6SM SCT035
     FM271000 15004KT 4SM BR OVC015
     FM271500 17012KT 6SM BR BKN015=

USA.gov is the U.S. government's official web portal to all federal, state and local government web resources and services.